الصفحة الرئيسية
METAR-TAF:

METAR-TAF

مطار :

Dalhart Municipal Airport

دالهارت, تكساس, الولايات المتحدة

دائرة عرض: 36-01-24N, خط طول: 102-32-50W, ارتفاع: 1216 متر

مراقبة الطقس الحالي

تاريخ ووقت الإصدار 12 دقيقة قبل الساعة 18:53UTC
ريح 7 عقدة من الشمال/الشمال الشرقي
درجة الحرارة 31°درجة مئوية
الرطوبة 38%
ضغط 1017 hPa
الرؤية: 16.1 كم
سماء صافية

METAR: KDHT 141853Z AUTO 03007KT 10SM CLR 31/15 A3002 RMK AO2 SLP101 T03060150

زمن: 14:05 (19:05 UTC)

توقعات

تاريخ ووقت الإصدار 1ساعة و 34 دقيقة قبل الساعة 17:31UTC
التوقعات صالحة من14 الساعة 18 UTC إلى 15 الساعة 18 UTC
ريح 6 عقدة من الشمال
الرؤية: 10 كم
غيوم متفرقة على ارتفاع 7000 قدم
غيوم متفرقة على ارتفاع 10000 قدم
من 15 الساعة 1500 UTC
ريح 4 عقدة من الشرق
الرؤية: 10 كم
غيوم قليلة على ارتفاع 7000 قدم
غيوم قليلة على ارتفاع 20000 قدم

TAF: KDHT 141731Z 1418/1518 01006KT P6SM SCT070 SCT100 FM151500 09004KT P6SM FEW070 FEW200

أرصاد الطقس والتوقعات من أكثر من 4000 مطار (تقارير الطقس للمطار METAR والتنبؤ بالطقس بالمطارTAF).

المحطات المتاحة هي النقط الصفراء والحمراء على الخريطة.

حرك المؤشر فوق النقطة لمعرفة اسم المحطة.

ثم انقر لمعرفة أرصاد وتوقعات الطقس.

لتغيير الخارطة: اضغط على الأزرار الخضراء مع رمز الصليب الأسود للتكبير. على الزر الأخضر مع شرطة للتصغير، أو على الأسهم الخضراء للخرائط المجاورة.


METAR-TAF: